SBRF/REC METAR and TAF weather

Enter ICAO airport designator
Station Type Date Time Source
SBRF METAR 2019/10/23 20:00 UTC NOAA

SBRF 232000Z 10006KT 9999 FEW025 27/22 Q1011


Station Type Date Time Source
SBRF Decoded METAR 2019/10/23 20:00 UTC NOAA

Recife Aeroporto , Brazil (SBRF) 08-04S 034-51W
Oct 23, 2019 - 04:00 PM EDT / 2019.10.23 2000 UTC
Wind: from the E (100 degrees) at 7 MPH (6 KT):0
Visibility: greater than 7 mile(s):0
Sky conditions: mostly clear
Temperature: 80 F (27 C)
Dew Point: 71 F (22 C)
Relative Humidity: 74%
Pressure (altimeter): 29.85 in. Hg (1011 hPa)
ob: SBRF 232000Z 10006KT 9999 FEW025 27/22 Q1011
cycle: 20

Station Type Date Time Source
SBRF TAF 2019/10/23 18:36 UTC NOAA

TAF SBRF 231600Z 2318/2418 08010KT 9999 SCT023 TN24/2405Z TX29/2414Z
BECMG 2322/2324 05005KT
BECMG 2403/2405 33005KT
BECMG 2412/2414 06008KT
RMK PEH

Example: see airport list